Time;durP1;ratioP1;P1;durP2;ratioP2;P2;SDS_P1;SDS_P2;PMS_P1;PMS_P2;Temp;Humidity;BMP_temperature;BMP_pressure;BME280_temperature;BME280_humidity;BME280_pressure;Samples;Min_cycle;Max_cycle;Signal;HPM_P1;HPM_P2
2024/02/17 00:01:58;;;;;;;10.82;7.68;;;10.40;99.90;;;;;;5021392;28;20056;-42
2024/02/17 00:04:24;;;;;;;8.07;6.95;;;10.40;99.90;;;;;;5019514;28;20472;-40
2024/02/17 00:06:49;;;;;;;9.52;6.72;;;10.40;99.90;;;;;;5018113;28;20033;-36
2024/02/17 00:09:15;;;;;;;13.25;7.18;;;10.40;99.90;;;;;;5017819;28;20030;-40
2024/02/17 00:11:41;;;;;;;11.48;7.53;;;10.40;99.90;;;;;;5025243;28;20056;-40
2024/02/17 00:14:07;;;;;;;10.32;6.20;;;10.40;99.90;;;;;;5017780;28;20048;-39
2024/02/17 00:16:32;;;;;;;9.25;7.00;;;10.50;99.90;;;;;;5026011;28;20054;-41
2024/02/17 00:18:58;;;;;;;9.52;6.93;;;10.50;99.90;;;;;;5021982;28;20060;-41
2024/02/17 00:21:24;;;;;;;9.80;6.55;;;10.50;99.90;;;;;;5021296;28;20471;-41
2024/02/17 00:23:49;;;;;;;10.60;6.63;;;10.50;99.90;;;;;;5019179;28;20575;-38
2024/02/17 00:26:18;;;;;;;8.88;6.72;;;10.40;99.90;;;;;;5017541;28;20044;-39
2024/02/17 00:28:43;;;;;;;;;;;10.50;99.90;;;;;;5017924;28;20098;-40
2024/02/17 00:31:09;;;;;;;9.38;6.63;;;10.40;99.90;;;;;;5013349;28;20019;-37
2024/02/17 00:33:37;;;;;;;12.23;6.72;;;10.50;99.90;;;;;;5018341;28;20025;-34
2024/02/17 00:36:03;;;;;;;9.30;6.90;;;10.50;99.90;;;;;;5033620;28;20049;-35
2024/02/17 00:38:29;;;;;;;8.50;6.57;;;10.40;99.90;;;;;;5027808;28;20083;-35
2024/02/17 00:40:56;;;;;;;13.05;7.25;;;10.50;99.90;;;;;;5031902;28;20026;-36
2024/02/17 00:43:22;;;;;;;9.95;6.78;;;10.50;99.90;;;;;;5028372;28;20041;-33
2024/02/17 00:45:48;;;;;;;10.32;7.28;;;10.50;99.90;;;;;;5038510;28;20033;-33
2024/02/17 00:48:15;;;;;;;11.45;7.40;;;10.50;99.90;;;;;;5022390;28;20104;-37
2024/02/17 00:50:41;;;;;;;11.32;7.05;;;10.50;99.90;;;;;;5032897;28;20033;-33
2024/02/17 00:53:06;;;;;;;10.07;6.68;;;10.50;99.90;;;;;;5025241;28;20522;-36
2024/02/17 00:55:32;;;;;;;8.38;6.50;;;10.50;99.90;;;;;;5034798;28;20375;-33
2024/02/17 00:57:59;;;;;;;8.10;6.75;;;10.50;99.90;;;;;;5026453;28;20033;-35
2024/02/17 01:00:25;;;;;;;10.07;7.80;;;10.50;99.90;;;;;;5030347;28;20064;-33
2024/02/17 01:02:50;;;;;;;9.57;6.72;;;10.50;99.90;;;;;;5023281;28;20061;-35
2024/02/17 01:05:16;;;;;;;7.82;6.28;;;10.60;99.90;;;;;;5031244;28;20484;-33
2024/02/17 01:07:42;;;;;;;9.07;6.43;;;10.50;99.90;;;;;;5030161;28;20071;-34
2024/02/17 01:10:07;;;;;;;8.18;6.07;;;10.50;99.90;;;;;;5027901;28;20036;-34
2024/02/17 01:12:33;;;;;;;11.52;6.63;;;10.50;99.90;;;;;;5026811;28;20107;-41
2024/02/17 01:14:59;;;;;;;10.65;7.25;;;10.50;99.90;;;;;;5031986;28;20483;-42
2024/02/17 01:17:24;;;;;;;10.68;6.97;;;10.50;99.90;;;;;;5037610;28;20029;-41
2024/02/17 01:19:50;;;;;;;9.73;7.25;;;10.40;99.90;;;;;;5031807;28;20056;-35
2024/02/17 01:22:15;;;;;;;8.50;7.32;;;10.40;99.90;;;;;;5020754;28;20595;-39
2024/02/17 01:24:42;;;;;;;10.82;7.95;;;10.40;99.90;;;;;;5026928;28;20057;-37
2024/02/17 01:27:08;;;;;;;16.45;8.20;;;10.40;99.90;;;;;;5014201;28;20049;-39
2024/02/17 01:29:34;;;;;;;9.20;7.45;;;10.40;99.90;;;;;;5025334;28;20120;-41
2024/02/17 01:32:00;;;;;;;13.80;8.48;;;10.40;99.90;;;;;;5025409;28;20041;-40
2024/02/17 01:34:25;;;;;;;11.80;7.90;;;10.40;99.90;;;;;;5021599;28;20552;-41
2024/02/17 01:36:51;;;;;;;12.25;8.10;;;10.50;99.90;;;;;;5030090;28;20021;-37
2024/02/17 01:39:17;;;;;;;11.05;7.75;;;10.50;99.90;;;;;;5024258;28;20506;-39
2024/02/17 01:41:42;;;;;;;19.42;11.93;;;10.50;99.90;;;;;;5041869;28;20017;-33
2024/02/17 01:44:08;;;;;;;51.45;24.00;;;10.50;99.90;;;;;;5029752;28;20033;-34
2024/02/17 01:46:33;;;;;;;29.98;15.30;;;10.40;99.90;;;;;;5032312;28;20017;-35
2024/02/17 01:49:00;;;;;;;16.80;10.27;;;10.40;99.90;;;;;;5026330;28;20045;-34
2024/02/17 01:51:26;;;;;;;14.02;9.88;;;10.40;99.90;;;;;;5025080;28;20389;-34
2024/02/17 01:53:53;;;;;;;21.73;19.42;;;10.40;99.90;;;;;;5028322;28;20079;-38
2024/02/17 01:56:20;;;;;;;18.20;16.27;;;10.40;99.90;;;;;;5029372;28;20479;-33
2024/02/17 01:58:47;;;;;;;13.48;10.75;;;10.40;99.90;;;;;;5008925;28;20450;-33
2024/02/17 02:01:14;;;;;;;12.85;10.20;;;10.40;99.90;;;;;;5023382;28;20034;-33
2024/02/17 02:03:39;;;;;;;12.65;9.25;;;10.40;99.90;;;;;;5015633;28;20033;-33
2024/02/17 02:06:05;;;;;;;10.60;8.27;;;10.40;99.90;;;;;;5024402;28;20052;-34
2024/02/17 02:08:32;;;;;;;12.07;8.43;;;10.40;99.90;;;;;;5023823;28;20029;-34
2024/02/17 02:11:00;;;;;;;8.93;7.88;;;10.40;99.90;;;;;;5029611;28;20076;-36
2024/02/17 02:13:26;;;;;;;12.63;8.63;;;10.40;99.90;;;;;;5020264;28;20545;-33
2024/02/17 02:15:52;;;;;;;11.48;8.20;;;10.40;99.90;;;;;;5031453;28;20490;-39
2024/02/17 02:18:18;;;;;;;10.45;8.23;;;10.40;99.90;;;;;;5028049;28;20037;-33
2024/02/17 02:20:44;;;;;;;13.55;7.47;;;10.40;99.90;;;;;;5025121;28;20486;-40
2024/02/17 02:23:10;;;;;;;12.23;8.20;;;10.40;99.90;;;;;;5022874;28;20170;-40
2024/02/17 02:25:39;;;;;;;10.70;8.43;;;10.40;99.90;;;;;;5026211;28;20070;-39
2024/02/17 02:28:05;;;;;;;10.48;7.25;;;10.40;99.90;;;;;;5031773;28;20037;-40
2024/02/17 02:30:32;;;;;;;11.18;7.30;;;10.40;99.90;;;;;;5022021;28;20903;-39
2024/02/17 02:32:58;;;;;;;11.02;7.05;;;10.40;99.90;;;;;;5026326;28;20064;-40
2024/02/17 02:35:23;;;;;;;9.75;7.80;;;10.40;99.90;;;;;;5022322;28;20054;-38
2024/02/17 02:37:49;;;;;;;7.40;5.88;;;10.40;99.90;;;;;;5025301;28;20597;-39
2024/02/17 02:40:15;;;;;;;8.65;6.63;;;10.40;99.90;;;;;;5028563;28;20475;-38
2024/02/17 02:42:46;;;;;;;12.35;6.93;;;10.40;99.90;;;;;;5029618;28;20033;-41
2024/02/17 02:45:12;;;;;;;10.23;7.20;;;10.50;99.90;;;;;;5021891;28;20025;-40
2024/02/17 02:47:38;;;;;;;9.75;6.97;;;10.40;99.90;;;;;;5036010;28;20643;-38
2024/02/17 02:50:04;;;;;;;10.40;6.90;;;10.40;99.90;;;;;;5019454;28;20031;-38
2024/02/17 02:52:29;;;;;;;9.27;6.82;;;10.40;99.90;;;;;;5024021;28;20104;-40
2024/02/17 02:54:55;;;;;;;9.20;6.82;;;10.40;99.90;;;;;;5014509;28;20030;-36
2024/02/17 02:57:20;;;;;;;11.30;6.65;;;10.40;99.90;;;;;;5027551;28;20026;-37
2024/02/17 02:59:46;;;;;;;15.77;6.72;;;10.40;99.90;;;;;;5025730;28;20051;-40
2024/02/17 03:02:12;;;;;;;7.63;5.78;;;10.40;99.90;;;;;;5043649;28;20407;-40
2024/02/17 03:07:59;;;;;;;9.68;6.68;;;10.40;99.90;;;;;;5020766;28;20040;-41
2024/02/17 03:10:25;;;;;;;8.70;6.25;;;10.50;99.90;;;;;;5025453;28;20029;-37
2024/02/17 03:12:50;;;;;;;9.30;6.72;;;10.50;99.90;;;;;;5007039;28;20038;-35
2024/02/17 03:15:16;;;;;;;9.10;7.13;;;10.50;99.90;;;;;;5007814;28;20061;-40
2024/02/17 03:17:42;;;;;;;11.00;6.93;;;10.50;99.90;;;;;;5025262;28;20096;-39
2024/02/17 03:20:08;;;;;;;9.63;6.38;;;10.50;99.90;;;;;;5024278;28;20083;-41
2024/02/17 03:22:33;;;;;;;9.10;7.07;;;10.50;99.90;;;;;;5025598;28;20033;-41
2024/02/17 03:24:59;;;;;;;10.45;6.60;;;10.50;99.90;;;;;;5018498;28;20479;-41
2024/02/17 03:27:25;;;;;;;8.40;6.60;;;10.50;99.90;;;;;;5026574;28;20076;-40
2024/02/17 03:29:51;;;;;;;9.45;6.70;;;10.50;99.90;;;;;;5022225;28;20036;-36
2024/02/17 03:32:17;;;;;;;9.13;7.35;;;10.50;99.90;;;;;;5020798;28;20514;-33
2024/02/17 03:34:42;;;;;;;8.38;6.40;;;10.50;99.90;;;;;;5027062;28;20120;-32
2024/02/17 03:37:08;;;;;;;8.88;7.30;;;10.50;99.90;;;;;;5027267;28;20026;-33
2024/02/17 03:39:34;;;;;;;9.13;6.57;;;10.40;99.90;;;;;;5032268;28;20025;-37
2024/02/17 03:42:00;;;;;;;8.40;6.10;;;10.40;99.90;;;;;;5026525;28;20126;-33
2024/02/17 03:44:26;;;;;;;15.80;9.93;;;10.40;99.90;;;;;;5025628;28;20084;-32
2024/02/17 03:46:51;;;;;;;13.38;7.80;;;10.40;99.90;;;;;;5022826;28;20506;-35
2024/02/17 03:49:20;;;;;;;11.30;6.95;;;10.40;99.90;;;;;;5027565;28;20037;-32
2024/02/17 03:51:52;;;;;;;10.07;7.22;;;10.40;99.90;;;;;;5022997;28;20036;-34
2024/02/17 03:54:17;;;;;;;9.90;7.18;;;10.50;99.90;;;;;;5029188;28;20036;-33
2024/02/17 03:56:43;;;;;;;10.25;7.20;;;10.50;99.90;;;;;;5026688;28;20021;-33
2024/02/17 03:59:09;;;;;;;10.13;6.95;;;10.50;99.90;;;;;;5022522;28;20033;-34
2024/02/17 04:01:35;;;;;;;8.93;7.05;;;10.50;99.90;;;;;;5030049;28;20500;-40
2024/02/17 04:04:04;;;;;;;8.00;6.35;;;10.50;99.90;;;;;;5026187;28;20803;-42
2024/02/17 04:06:33;;;;;;;10.45;6.28;;;10.60;99.90;;;;;;5027546;28;20036;-40
2024/02/17 04:08:58;;;;;;;;;;;10.50;99.90;;;;;;5019597;28;20081;-42
2024/02/17 04:11:26;;;;;;;9.93;7.03;;;10.50;99.90;;;;;;5020737;28;19944;-41
2024/02/17 04:13:51;;;;;;;9.95;6.57;;;10.50;99.90;;;;;;5017927;28;20037;-39
2024/02/17 04:16:17;;;;;;;9.93;7.05;;;10.50;99.90;;;;;;5019848;28;20041;-41
2024/02/17 04:18:43;;;;;;;9.13;6.82;;;10.50;99.90;;;;;;5021630;28;20384;-40
2024/02/17 04:21:08;;;;;;;9.98;6.60;;;10.50;99.90;;;;;;5020504;28;20025;-41
2024/02/17 04:23:34;;;;;;;8.35;6.97;;;10.50;99.90;;;;;;5019351;28;20091;-38
2024/02/17 04:26:02;;;;;;;7.55;6.25;;;10.50;99.90;;;;;;5018985;28;20040;-36
2024/02/17 04:28:28;;;;;;;8.15;7.35;;;10.50;99.90;;;;;;5022735;28;20601;-40
2024/02/17 04:30:54;;;;;;;11.18;7.32;;;10.50;99.90;;;;;;5020113;28;20070;-36
2024/02/17 04:33:19;;;;;;;9.57;6.90;;;10.50;99.90;;;;;;5022890;28;20475;-40
2024/02/17 04:35:45;;;;;;;8.13;6.45;;;10.50;99.90;;;;;;5022364;28;20041;-38
2024/02/17 04:38:12;;;;;;;9.35;7.30;;;10.40;99.90;;;;;;5026639;28;20030;-41
2024/02/17 04:40:38;;;;;;;9.20;6.28;;;10.50;99.90;;;;;;5022901;28;20064;-33
2024/02/17 04:43:04;;;;;;;9.18;7.03;;;10.50;99.90;;;;;;5034524;28;20076;-33
2024/02/17 04:45:29;;;;;;;9.85;7.35;;;10.40;99.90;;;;;;5028223;28;20024;-32
2024/02/17 04:47:55;;;;;;;8.70;6.57;;;10.40;99.90;;;;;;5023839;28;20567;-33
2024/02/17 04:50:20;;;;;;;9.90;6.32;;;10.40;99.90;;;;;;5024961;28;20026;-34
2024/02/17 04:52:46;;;;;;;9.85;6.70;;;10.40;99.90;;;;;;5024510;28;20033;-34
2024/02/17 04:55:12;;;;;;;8.18;6.85;;;10.40;99.90;;;;;;5026402;28;20030;-35
2024/02/17 04:57:37;;;;;;;7.05;5.25;;;10.40;99.90;;;;;;5025255;28;20026;-33
2024/02/17 05:00:06;;;;;;;8.63;5.88;;;10.30;99.90;;;;;;5023820;28;20048;-34
2024/02/17 05:02:36;;;;;;;7.18;6.40;;;10.30;99.90;;;;;;5024964;28;20049;-32
2024/02/17 05:05:02;;;;;;;10.40;7.03;;;10.30;99.90;;;;;;5020055;28;20069;-33
2024/02/17 05:07:27;;;;;;;8.00;6.63;;;10.30;99.90;;;;;;5020915;28;20046;-34
2024/02/17 05:09:53;;;;;;;9.02;6.82;;;10.30;99.90;;;;;;5025188;28;20029;-38
2024/02/17 05:12:18;;;;;;;8.35;6.07;;;10.30;99.90;;;;;;5021635;28;20056;-39
2024/02/17 05:14:44;;;;;;;8.15;5.97;;;10.20;99.90;;;;;;5019244;28;20033;-41
2024/02/17 05:17:11;;;;;;;9.48;6.60;;;10.20;99.90;;;;;;5023993;28;20088;-39
2024/02/17 05:19:37;;;;;;;9.57;6.30;;;10.30;99.90;;;;;;5030378;28;20704;-41
2024/02/17 05:22:03;;;;;;;8.98;6.75;;;10.30;99.90;;;;;;5026425;28;20045;-39
2024/02/17 05:24:29;;;;;;;9.25;7.00;;;10.20;99.90;;;;;;5028053;28;20050;-37
2024/02/17 05:26:55;;;;;;;10.43;7.30;;;10.30;99.90;;;;;;5022249;28;20030;-38
2024/02/17 05:29:21;;;;;;;8.63;6.88;;;10.30;99.90;;;;;;5029344;28;20048;-42
2024/02/17 05:31:46;;;;;;;8.73;6.78;;;10.30;99.90;;;;;;5027343;28;20034;-40
2024/02/17 05:34:12;;;;;;;11.30;6.90;;;10.30;99.90;;;;;;5024893;28;20037;-40
2024/02/17 05:36:38;;;;;;;7.03;6.00;;;10.30;99.90;;;;;;5021783;28;20041;-39
2024/02/17 05:39:04;;;;;;;11.38;6.47;;;10.30;99.90;;;;;;5023183;28;20532;-40
2024/02/17 05:41:29;;;;;;;8.40;6.38;;;10.30;99.90;;;;;;5022258;28;20042;-40
2024/02/17 05:43:56;;;;;;;7.00;6.00;;;10.30;99.90;;;;;;5028705;28;20064;-36
2024/02/17 05:46:23;;;;;;;9.02;5.97;;;10.30;99.90;;;;;;5023443;28;20562;-40
2024/02/17 05:48:49;;;;;;;8.97;7.03;;;10.30;99.90;;;;;;5021006;28;20036;-37
2024/02/17 05:51:14;;;;;;;7.93;6.30;;;10.20;99.90;;;;;;5022890;28;20083;-33
2024/02/17 05:53:40;;;;;;;8.13;6.68;;;10.30;99.90;;;;;;5022876;28;20039;-33
2024/02/17 05:56:06;;;;;;;11.75;7.07;;;10.30;99.90;;;;;;5023785;28;20483;-33
2024/02/17 05:58:32;;;;;;;11.63;6.30;;;10.30;99.90;;;;;;5033218;28;20479;-33
2024/02/17 06:01:00;;;;;;;9.60;6.68;;;10.30;99.90;;;;;;5021302;28;20037;-35
2024/02/17 06:03:26;;;;;;;8.32;6.55;;;10.30;99.90;;;;;;5029244;28;20409;-33
2024/02/17 06:05:52;;;;;;;9.75;7.13;;;10.30;99.90;;;;;;5021881;28;20025;-37
2024/02/17 06:08:19;;;;;;;8.13;5.55;;;10.30;99.90;;;;;;5020442;28;20041;-32
2024/02/17 06:10:44;;;;;;;8.20;4.53;;;10.30;99.90;;;;;;5026348;28;20080;-33
2024/02/17 06:13:10;;;;;;;7.57;5.20;;;10.30;99.90;;;;;;5026427;28;20037;-33
2024/02/17 06:15:36;;;;;;;7.80;6.18;;;10.30;99.90;;;;;;5026960;28;20030;-34
2024/02/17 06:23:29;;;;;;;8.45;6.65;;;10.40;99.90;;;;;;5027291;28;20095;-39
2024/02/17 06:25:55;;;;;;;3.78;3.35;;;10.30;99.90;;;;;;5031947;28;20491;-40
2024/02/17 06:28:21;;;;;;;3.15;2.85;;;10.20;99.90;;;;;;5026669;28;20403;-40
2024/02/17 06:30:46;;;;;;;2.97;2.60;;;10.10;99.90;;;;;;5029800;28;20032;-42
2024/02/17 06:33:12;;;;;;;4.30;2.85;;;10.10;99.90;;;;;;5018864;28;20034;-42
2024/02/17 06:35:39;;;;;;;4.43;3.10;;;10.00;99.90;;;;;;5024856;28;20048;-39
2024/02/17 06:38:05;;;;;;;6.38;3.42;;;10.00;99.90;;;;;;5024326;28;20029;-40
2024/02/17 06:40:30;;;;;;;5.28;3.10;;;10.00;99.90;;;;;;5023888;28;20378;-40
2024/02/17 06:42:56;;;;;;;6.68;3.30;;;9.90;99.90;;;;;;5020461;28;20569;-40
2024/02/17 06:45:21;;;;;;;5.95;3.75;;;9.90;99.90;;;;;;5020280;28;20057;-39
2024/02/17 06:47:47;;;;;;;5.40;3.35;;;9.90;99.90;;;;;;5019043;28;20036;-40
2024/02/17 06:50:13;;;;;;;7.07;4.00;;;9.90;99.90;;;;;;5021215;28;20029;-41
2024/02/17 06:52:39;;;;;;;6.53;3.80;;;9.90;99.90;;;;;;5025550;28;20048;-38
2024/02/17 06:55:05;;;;;;;6.07;3.67;;;10.00;99.90;;;;;;5025051;28;20034;-36
2024/02/17 06:57:31;;;;;;;7.90;4.28;;;9.90;99.90;;;;;;5024992;28;20068;-42
2024/02/17 06:59:57;;;;;;;7.85;3.67;;;9.90;99.90;;;;;;5040670;28;20025;-40
2024/02/17 07:02:22;;;;;;;8.32;4.38;;;9.90;99.90;;;;;;5026119;28;20521;-39
2024/02/17 07:04:49;;;;;;;7.00;4.15;;;9.90;99.90;;;;;;5016056;28;20068;-36
2024/02/17 07:07:14;;;;;;;7.20;4.25;;;9.90;99.90;;;;;;5018733;28;20479;-39
2024/02/17 07:09:40;;;;;;;8.27;4.50;;;9.90;99.90;;;;;;5026032;28;20028;-38
2024/02/17 07:12:06;;;;;;;8.88;4.60;;;9.90;99.90;;;;;;5024742;28;20033;-41
2024/02/17 07:14:32;;;;;;;8.02;4.72;;;9.90;99.90;;;;;;5032621;28;20483;-38
2024/02/17 07:16:57;;;;;;;8.50;4.30;;;9.90;99.90;;;;;;5024616;28;20063;-39
2024/02/17 07:19:23;;;;;;;11.93;5.20;;;9.90;99.90;;;;;;5021787;28;20018;-40
2024/02/17 07:21:49;;;;;;;8.52;4.50;;;10.00;99.90;;;;;;5027399;28;20033;-38
2024/02/17 07:24:15;;;;;;;8.77;4.57;;;9.90;99.90;;;;;;5025846;28;20037;-39
2024/02/17 07:26:42;;;;;;;10.00;5.40;;;9.90;99.90;;;;;;5026995;28;20029;-40
2024/02/17 07:29:08;;;;;;;10.60;4.88;;;10.00;99.90;;;;;;5018267;28;20388;-40
2024/02/17 07:31:40;;;;;;;8.40;4.80;;;9.90;99.90;;;;;;5023277;28;20034;-33
2024/02/17 07:34:07;;;;;;;9.50;6.00;;;10.00;99.90;;;;;;5019967;28;20068;-35
2024/02/17 07:36:33;;;;;;;13.13;6.65;;;10.00;99.90;;;;;;5022292;28;20137;-33
2024/02/17 07:38:58;;;;;;;11.15;6.18;;;10.00;99.90;;;;;;5022850;28;20539;-32
2024/02/17 07:41:24;;;;;;;7.63;4.65;;;10.00;99.90;;;;;;5021352;28;20106;-33
2024/02/17 07:43:52;;;;;;;7.90;4.90;;;10.10;99.90;;;;;;5026938;28;20025;-37
2024/02/17 07:46:18;;;;;;;11.73;4.72;;;10.00;99.90;;;;;;5024163;28;20030;-33
2024/02/17 07:48:45;;;;;;;8.85;4.80;;;10.10;99.90;;;;;;5021107;28;20120;-33
2024/02/17 07:51:14;;;;;;;8.23;4.78;;;10.10;99.90;;;;;;5027479;28;20033;-32
2024/02/17 07:53:40;;;;;;;9.45;5.20;;;10.10;99.90;;;;;;5024843;28;20460;-34
2024/02/17 07:56:06;;;;;;;10.95;5.20;;;10.20;99.90;;;;;;5018914;28;20104;-36
2024/02/17 07:58:32;;;;;;;10.10;5.40;;;10.20;99.90;;;;;;5022296;28;20021;-33
2024/02/17 08:00:58;;;;;;;9.65;4.70;;;10.20;99.90;;;;;;5022993;28;20061;-37
2024/02/17 08:03:29;;;;;;;10.35;5.72;;;10.10;99.90;;;;;;5021103;28;20041;-34
2024/02/17 08:05:55;;;;;;;10.93;4.80;;;10.10;99.90;;;;;;5019063;28;20451;-37
2024/02/17 08:08:21;;;;;;;9.15;4.93;;;10.10;99.90;;;;;;5023883;28;20028;-34
2024/02/17 08:10:47;;;;;;;10.73;5.18;;;10.00;99.90;;;;;;5017901;28;20042;-37
2024/02/17 08:13:13;;;;;;;8.50;4.40;;;9.90;99.90;;;;;;5027004;28;20134;-36
2024/02/17 08:15:39;;;;;;;10.32;4.45;;;9.80;99.90;;;;;;5026125;28;20104;-34
2024/02/17 08:18:05;;;;;;;10.48;4.38;;;9.90;99.90;;;;;;5024954;28;20439;-34
2024/02/17 08:20:31;;;;;;;8.48;4.20;;;9.80;99.90;;;;;;5027911;28;20039;-35
2024/02/17 08:22:57;;;;;;;11.98;5.07;;;9.90;99.90;;;;;;5020373;28;20028;-33
2024/02/17 08:25:24;;;;;;;8.52;4.30;;;9.90;99.90;;;;;;5009147;28;20148;-34
2024/02/17 08:27:49;;;;;;;10.25;4.57;;;9.90;99.90;;;;;;5023263;28;20064;-33
2024/02/17 08:30:15;;;;;;;9.73;4.53;;;10.00;99.90;;;;;;5025450;28;20065;-37
2024/02/17 08:32:41;;;;;;;8.30;4.65;;;10.00;99.90;;;;;;5020359;28;20735;-36
2024/02/17 08:35:06;;;;;;;9.32;4.55;;;10.00;99.90;;;;;;5024178;28;20049;-37
2024/02/17 08:37:32;;;;;;;8.63;4.60;;;10.00;99.90;;;;;;5019751;28;20033;-34
2024/02/17 08:39:57;;;;;;;8.75;3.97;;;10.00;99.90;;;;;;5020996;28;20437;-34
2024/02/17 08:42:23;;;;;;;9.85;4.88;;;10.00;99.90;;;;;;5026976;28;20044;-38
2024/02/17 08:44:52;;;;;;;8.98;4.90;;;10.00;99.90;;;;;;5019754;28;20097;-41
2024/02/17 08:47:22;;;;;;;12.25;5.60;;;10.10;99.90;;;;;;5017045;28;20386;-39
2024/02/17 08:49:51;;;;;;;10.00;4.80;;;10.10;99.90;;;;;;5019573;28;20399;-40
2024/02/17 08:52:17;;;;;;;9.32;4.80;;;10.20;99.90;;;;;;5029830;28;20029;-37
2024/02/17 08:54:42;;;;;;;9.45;5.00;;;10.20;99.90;;;;;;5020747;28;20036;-41
2024/02/17 08:57:08;;;;;;;11.45;5.32;;;10.20;99.90;;;;;;5025862;28;20033;-40
2024/02/17 08:59:33;;;;;;;11.98;5.97;;;10.20;99.90;;;;;;5032551;28;20496;-38
2024/02/17 09:01:59;;;;;;;10.50;5.65;;;10.20;99.90;;;;;;5017510;28;20072;-39
2024/02/17 09:04:25;;;;;;;11.15;5.22;;;10.20;99.90;;;;;;5025088;28;20031;-39
2024/02/17 09:06:52;;;;;;;11.65;5.90;;;10.30;99.90;;;;;;5023787;28;20037;-37
2024/02/17 09:09:18;;;;;;;11.07;5.97;;;10.30;99.90;;;;;;5023333;28;20391;-40
2024/02/17 09:11:45;;;;;;;10.38;5.55;;;10.30;99.90;;;;;;5023100;28;20044;-39
2024/02/17 09:14:11;;;;;;;11.13;6.45;;;10.30;99.90;;;;;;5030501;28;20548;-39
2024/02/17 09:16:36;;;;;;;10.52;5.20;;;10.20;99.90;;;;;;5029156;28;20022;-39
2024/02/17 09:19:02;;;;;;;9.75;5.43;;;10.20;99.90;;;;;;5028024;28;20031;-40
2024/02/17 09:21:27;;;;;;;13.05;6.05;;;10.30;99.90;;;;;;5026047;28;20442;-34
2024/02/17 09:23:53;;;;;;;10.85;5.07;;;10.40;99.90;;;;;;5028996;28;20031;-35
2024/02/17 09:26:21;;;;;;;13.00;6.00;;;10.40;99.90;;;;;;5029178;28;20382;-33
2024/02/17 09:28:47;;;;;;;10.40;5.63;;;10.50;99.90;;;;;;5026830;28;20022;-33
2024/02/17 09:31:12;;;;;;;10.73;6.05;;;10.40;99.90;;;;;;5022813;28;20584;-34
2024/02/17 09:33:38;;;;;;;12.90;6.43;;;10.30;99.90;;;;;;5023595;28;20041;-34
2024/02/17 09:36:06;;;;;;;11.20;6.05;;;10.30;99.90;;;;;;5020387;28;20050;-36
2024/02/17 09:38:31;;;;;;;12.32;6.18;;;10.30;99.90;;;;;;5022569;28;20045;-36
2024/02/17 09:40:57;;;;;;;11.38;6.13;;;10.30;99.90;;;;;;5023657;28;20534;-32
2024/02/17 09:43:25;;;;;;;11.00;5.93;;;10.30;99.90;;;;;;5021180;28;20411;-35
2024/02/17 09:45:51;;;;;;;12.07;6.20;;;10.30;99.90;;;;;;5023088;28;20041;-35
2024/02/17 09:48:17;;;;;;;12.13;5.60;;;10.30;99.90;;;;;;5020938;28;20044;-34
2024/02/17 09:50:44;;;;;;;13.63;6.40;;;10.30;99.90;;;;;;5023555;28;20502;-42
2024/02/17 09:53:12;;;;;;;12.20;6.40;;;10.30;99.90;;;;;;5007048;28;20690;-41
2024/02/17 09:55:37;;;;;;;11.15;6.32;;;10.30;99.90;;;;;;5024512;28;20564;-42
2024/02/17 09:58:03;;;;;;;12.50;6.75;;;10.30;99.90;;;;;;5022220;28;20033;-41
2024/02/17 10:00:29;;;;;;;11.77;5.82;;;10.30;99.90;;;;;;5021479;28;20058;-41
2024/02/17 10:02:58;;;;;;;10.40;5.75;;;10.40;99.90;;;;;;5020070;28;20743;-39
2024/02/17 10:05:27;;;;;;;12.60;6.43;;;10.50;99.90;;;;;;5023275;28;20032;-41
2024/02/17 10:07:53;;;;;;;13.40;6.60;;;10.40;99.90;;;;;;5024562;28;20041;-40
2024/02/17 10:10:21;;;;;;;11.25;5.95;;;10.50;99.90;;;;;;5022542;28;20065;-40
2024/02/17 10:12:57;;;;;;;12.50;5.65;;;10.60;99.90;;;;;;5021284;28;20041;-38
2024/02/17 10:15:24;;;;;;;11.43;6.20;;;10.70;99.90;;;;;;5024680;28;20087;-41
2024/02/17 10:17:51;;;;;;;9.82;6.07;;;10.80;99.90;;;;;;5014092;28;20065;-37
2024/02/17 10:20:17;;;;;;;11.25;6.45;;;10.90;99.90;;;;;;5025838;28;20114;-41
2024/02/17 10:22:44;;;;;;;10.48;6.35;;;11.10;99.90;;;;;;5022824;28;20778;-39
2024/02/17 10:25:11;;;;;;;15.40;7.10;;;11.20;99.90;;;;;;5028473;28;20021;-40
2024/02/17 10:27:39;;;;;;;13.05;6.63;;;11.30;99.90;;;;;;5027244;28;20040;-40
2024/02/17 10:30:12;;;;;;;13.98;7.03;;;11.30;99.90;;;;;;5028644;28;20030;-41
2024/02/17 10:32:38;;;;;;;10.90;6.75;;;11.20;99.90;;;;;;5026749;28;20040;-32
2024/02/17 10:35:07;;;;;;;12.77;7.10;;;11.10;99.90;;;;;;5029650;28;20111;-33
2024/02/17 10:37:35;;;;;;;11.88;6.95;;;11.00;99.90;;;;;;5024665;28;20172;-34
2024/02/17 10:40:03;;;;;;;12.98;7.15;;;10.90;99.90;;;;;;5022397;28;20035;-32
2024/02/17 10:42:30;;;;;;;12.40;7.07;;;11.10;99.90;;;;;;5024435;28;20037;-34
2024/02/17 10:44:57;;;;;;;11.13;6.22;;;11.10;99.90;;;;;;5022340;28;20035;-37
2024/02/17 10:47:27;;;;;;;11.40;6.75;;;10.90;99.90;;;;;;5027260;28;20057;-33
2024/02/17 10:50:14;;;;;;;11.77;6.50;;;10.70;99.90;;;;;;5027361;28;20022;-33
2024/02/17 10:52:49;;;;;;;11.60;6.32;;;10.50;99.90;;;;;;5020352;28;20609;-35
2024/02/17 10:55:18;;;;;;;12.07;6.82;;;10.40;99.90;;;;;;5025677;28;20036;-36
2024/02/17 10:57:55;;;;;;;10.85;6.00;;;10.60;99.90;;;;;;5024334;28;20132;-35
2024/02/17 11:00:22;;;;;;;11.10;6.28;;;11.10;99.90;;;;;;5029601;28;20478;-32
2024/02/17 11:02:50;;;;;;;11.68;6.65;;;11.50;99.90;;;;;;5030008;28;20561;-33
2024/02/17 11:05:20;;;;;;;10.73;5.78;;;11.80;99.90;;;;;;5020106;28;20049;-33
2024/02/17 11:07:47;;;;;;;9.45;5.45;;;11.80;99.90;;;;;;5029654;28;20400;-32
2024/02/17 11:10:13;;;;;;;10.60;6.05;;;11.60;99.90;;;;;;5019043;28;20044;-32
2024/02/17 11:12:40;;;;;;;10.00;5.90;;;11.40;99.90;;;;;;5007906;28;20021;-32
2024/02/17 11:15:09;;;;;;;9.82;6.18;;;11.40;99.90;;;;;;5022485;28;20038;-34
2024/02/17 11:17:44;;;;;;;10.88;6.30;;;11.50;99.90;;;;;;5020541;28;20300;-35
2024/02/17 11:20:13;;;;;;;11.75;6.65;;;11.80;99.90;;;;;;5004823;28;20660;-34
2024/02/17 11:22:44;;;;;;;12.25;6.85;;;11.90;99.90;;;;;;5023396;28;22120;-34
2024/02/17 11:25:11;;;;;;;10.43;6.05;;;12.00;99.90;;;;;;5022628;28;20387;-33
2024/02/17 11:27:41;;;;;;;10.23;6.13;;;11.90;99.90;;;;;;5023342;28;20029;-37
2024/02/17 11:30:08;;;;;;;12.90;7.50;;;12.10;99.90;;;;;;5023315;28;20041;-35
2024/02/17 11:32:37;;;;;;;13.85;6.90;;;12.00;99.90;;;;;;5019475;28;20629;-44
2024/02/17 11:35:05;;;;;;;11.57;6.43;;;11.70;99.90;;;;;;5019303;28;20075;-41
2024/02/17 11:37:32;;;;;;;12.90;7.13;;;11.40;99.90;;;;;;5017679;28;20109;-39
2024/02/17 11:40:00;;;;;;;14.13;6.85;;;11.40;99.90;;;;;;5019756;28;20078;-42
2024/02/17 11:42:26;;;;;;;11.48;7.00;;;11.20;99.90;;;;;;5022221;28;20834;-34
2024/02/17 11:44:54;;;;;;;12.02;6.70;;;11.20;99.90;;;;;;5022170;28;20037;-38
2024/02/17 11:47:20;;;;;;;11.32;5.93;;;11.20;99.90;;;;;;5021803;28;20148;-33
2024/02/17 11:49:46;;;;;;;11.52;6.28;;;11.10;99.90;;;;;;5022683;28;20109;-33
2024/02/17 11:52:12;;;;;;;13.10;6.50;;;11.00;99.90;;;;;;5026353;28;20025;-33
2024/02/17 11:54:38;;;;;;;12.15;7.00;;;11.10;99.90;;;;;;5020918;28;20045;-33
2024/02/17 11:57:05;;;;;;;11.73;6.50;;;11.30;99.90;;;;;;5026341;28;20064;-35
2024/02/17 11:59:31;;;;;;;10.18;5.93;;;11.40;99.90;;;;;;5023728;28;20029;-33
2024/02/17 12:02:01;;;;;;;8.45;5.07;;;11.40;99.90;;;;;;5022218;28;20499;-33
2024/02/17 12:04:26;;;;;;;10.48;6.38;;;11.60;99.90;;;;;;5022239;28;20036;-32
2024/02/17 12:06:52;;;;;;;10.93;5.65;;;11.70;99.90;;;;;;5029230;28;20025;-37
2024/02/17 12:09:17;;;;;;;11.48;6.30;;;11.70;99.90;;;;;;5018030;28;20041;-33
2024/02/17 12:11:43;;;;;;;11.43;6.82;;;11.70;99.90;;;;;;5009134;28;20056;-32
2024/02/17 12:14:10;;;;;;;10.30;5.95;;;11.70;99.90;;;;;;5022387;28;20132;-32
2024/02/17 12:16:36;;;;;;;10.77;5.43;;;11.90;99.90;;;;;;5020141;28;20049;-32
2024/02/17 12:19:11;;;;;;;11.10;6.25;;;11.90;99.90;;;;;;5017858;28;20038;-32
2024/02/17 12:21:37;;;;;;;12.93;5.53;;;11.90;99.90;;;;;;5026256;28;20022;-34
2024/02/17 12:24:04;;;;;;;9.13;5.57;;;12.00;99.90;;;;;;5022933;28;20040;-33
2024/02/17 12:26:32;;;;;;;10.93;6.57;;;12.10;99.90;;;;;;5027673;28;20033;-32
2024/02/17 12:29:06;;;;;;;11.55;6.20;;;12.20;99.90;;;;;;5021325;28;20048;-32
2024/02/17 12:31:33;;;;;;;11.15;6.15;;;12.30;99.90;;;;;;5024929;28;20432;-34
2024/02/17 12:33:59;;;;;;;8.23;5.00;;;12.10;99.90;;;;;;5028267;28;20026;-32
2024/02/17 12:36:25;;;;;;;8.45;5.10;;;12.00;99.90;;;;;;5020925;28;20060;-32
2024/02/17 12:39:08;;;;;;;8.95;5.30;;;12.00;99.90;;;;;;5002077;28;20029;-34
2024/02/17 12:41:33;;;;;;;7.22;4.95;;;11.90;99.90;;;;;;5027145;28;20022;-32
2024/02/17 12:43:59;;;;;;;10.95;6.00;;;12.00;99.90;;;;;;5027135;28;20040;-32
2024/02/17 12:46:28;;;;;;;10.45;5.85;;;12.00;99.90;;;;;;5020755;28;20501;-32
2024/02/17 12:48:54;;;;;;;11.05;6.60;;;11.90;99.90;;;;;;5024066;28;20123;-35